createdAt,value
2022-12-25T00:02:21.449Z,5.55
2022-12-25T00:06:04.214Z,5.64
2022-12-25T00:09:26.911Z,5.71
2022-12-25T00:13:27.076Z,5.72
2022-12-25T00:16:49.970Z,5.70
2022-12-25T00:20:27.394Z,5.71
2022-12-25T00:24:23.982Z,5.76
2022-12-25T00:27:46.279Z,5.80
2022-12-25T00:31:26.363Z,5.80
2022-12-25T00:35:02.156Z,5.81
2022-12-25T00:38:40.908Z,5.75
2022-12-25T00:42:20.922Z,5.73
2022-12-25T00:46:02.108Z,5.63
2022-12-25T00:49:51.268Z,5.49
2022-12-25T00:53:32.945Z,5.34
2022-12-25T00:56:55.257Z,5.18
2022-12-25T01:00:51.973Z,5.09
2022-12-25T01:04:14.630Z,5.08
2022-12-25T01:07:52.286Z,5.02
2022-12-25T01:11:31.409Z,4.95
2022-12-25T01:15:10.714Z,4.85
2022-12-25T01:18:46.675Z,4.75
2022-12-25T01:22:23.158Z,4.71
2022-12-25T01:26:22.035Z,4.70
2022-12-25T01:29:46.607Z,4.73
2022-12-25T01:33:42.861Z,4.77
2022-12-25T01:37:05.588Z,4.82
2022-12-25T01:40:42.974Z,4.83
2022-12-25T01:45:00.001Z,4.82
2022-12-25T01:48:30.729Z,4.81
2022-12-25T01:52:10.677Z,4.82
2022-12-25T01:55:38.742Z,4.86
2022-12-25T01:59:34.251Z,4.89
2022-12-25T02:02:57.532Z,4.93
2022-12-25T02:06:35.288Z,5.01
2022-12-25T02:10:13.029Z,5.06
2022-12-25T02:13:49.771Z,5.08
2022-12-25T02:18:09.450Z,5.07
2022-12-25T02:22:01.079Z,5.11
2022-12-25T02:26:07.496Z,5.10
2022-12-25T02:29:53.445Z,5.10
2022-12-25T02:34:02.394Z,5.17
2022-12-25T02:37:55.987Z,5.23
2022-12-25T02:41:43.216Z,5.23
2022-12-25T02:45:25.337Z,5.26
2022-12-25T02:49:33.729Z,5.26
2022-12-25T02:53:34.485Z,5.26
2022-12-25T02:57:18.814Z,5.28
2022-12-25T03:01:30.337Z,5.34
2022-12-25T03:05:13.843Z,5.36
2022-12-25T03:08:41.834Z,5.40
2022-12-25T03:12:49.642Z,5.40
2022-12-25T03:16:31.171Z,5.39
2022-12-25T03:20:12.927Z,5.40
2022-12-25T03:24:18.932Z,5.38
2022-12-25T03:27:43.100Z,5.36
2022-12-25T03:31:21.843Z,5.31
2022-12-25T03:35:23.975Z,5.29
2022-12-25T03:39:20.823Z,5.27
2022-12-25T03:43:12.881Z,5.24
2022-12-25T03:47:07.472Z,5.26
2022-12-25T03:51:02.108Z,5.27
2022-12-25T03:54:46.946Z,5.30
2022-12-25T03:58:47.254Z,5.35
2022-12-25T04:02:28.883Z,5.44
2022-12-25T04:06:10.338Z,5.46
2022-12-25T04:09:52.174Z,5.46
2022-12-25T04:13:34.890Z,5.44
2022-12-25T04:17:17.193Z,5.40
2022-12-25T04:20:58.421Z,5.34
2022-12-25T04:24:40.030Z,5.34
2022-12-25T04:28:40.381Z,5.36
2022-12-25T04:32:21.502Z,5.41
2022-12-25T04:36:07.628Z,5.40
2022-12-25T04:39:49.396Z,5.34
2022-12-25T04:43:30.168Z,5.32
2022-12-25T04:47:12.759Z,5.29
2022-12-25T04:50:34.840Z,5.29
2022-12-25T04:54:13.703Z,5.29
2022-12-25T04:58:09.629Z,5.26
2022-12-25T05:01:51.072Z,5.24
2022-12-25T05:05:13.632Z,5.23
2022-12-25T05:09:10.224Z,5.26
2022-12-25T05:12:32.002Z,5.31
2022-12-25T05:16:14.022Z,5.37
2022-12-25T05:19:47.387Z,5.45
2022-12-25T05:23:25.146Z,5.47
2022-12-25T05:27:21.741Z,5.47
2022-12-25T05:31:03.137Z,5.45
2022-12-25T05:34:25.281Z,5.48
2022-12-25T05:38:21.978Z,5.47
2022-12-25T05:41:44.644Z,5.51
2022-12-25T05:45:23.293Z,5.51
2022-12-25T05:48:59.538Z,5.47
2022-12-25T05:52:37.320Z,5.42
2022-12-25T05:56:14.961Z,5.41
2022-12-25T06:00:11.903Z,5.44
2022-12-25T06:03:36.743Z,5.41
2022-12-25T06:07:14.225Z,5.35
2022-12-25T06:11:13.408Z,5.31
2022-12-25T06:14:36.819Z,5.26
2022-12-25T06:18:13.942Z,5.24
2022-12-25T06:22:10.501Z,5.21
2022-12-25T06:25:51.506Z,5.19
2022-12-25T06:29:32.963Z,5.19
2022-12-25T06:33:13.863Z,5.15
2022-12-25T06:49:51.275Z,5.46
2022-12-25T06:53:49.379Z,5.48
2022-12-25T06:57:11.640Z,5.43
2022-12-25T07:00:49.658Z,5.33
2022-12-25T07:04:38.143Z,5.26
2022-12-25T07:08:23.884Z,5.22
2022-12-25T07:11:45.817Z,5.20
2022-12-25T07:15:23.809Z,5.18
2022-12-25T07:19:01.621Z,5.19
2022-12-25T07:22:39.059Z,5.19
2022-12-25T07:26:17.565Z,5.22
2022-12-25T07:29:54.510Z,5.19
2022-12-25T07:33:53.731Z,5.18
2022-12-25T07:37:16.326Z,5.19
2022-12-25T07:41:12.674Z,5.25
2022-12-25T07:44:35.074Z,5.25
2022-12-25T07:48:16.637Z,5.20
2022-12-25T07:51:50.221Z,5.21
2022-12-25T07:55:46.647Z,5.24
2022-12-25T07:59:27.790Z,5.28
2022-12-25T08:02:50.339Z,5.33
2022-12-25T08:06:31.723Z,5.41
2022-12-25T08:10:05.720Z,5.50
2022-12-25T08:13:43.210Z,5.58
2022-12-25T08:17:20.659Z,5.60
2022-12-25T08:48:45.227Z,17.33
2022-12-25T08:54:48.750Z,14.09
2022-12-25T09:00:02.653Z,12.27
2022-12-25T09:03:38.525Z,11.12
2022-12-25T09:07:15.579Z,10.25
2022-12-25T09:10:52.140Z,9.48
2022-12-25T09:14:30.251Z,8.81
2022-12-25T09:18:10.389Z,8.32
2022-12-25T09:21:45.861Z,7.90
2022-12-25T09:25:25.210Z,7.53
2022-12-25T09:29:02.972Z,7.31
2022-12-25T09:32:40.282Z,7.14
2022-12-25T09:36:15.767Z,7.00
2022-12-25T09:39:54.939Z,6.87
2022-12-25T09:43:38.864Z,6.80
2022-12-25T09:47:14.876Z,6.74
2022-12-25T09:50:57.757Z,6.67
2022-12-25T09:54:59.222Z,6.65
2022-12-25T09:58:22.516Z,6.64
2022-12-25T10:02:26.654Z,6.69
2022-12-25T10:06:07.934Z,6.76
2022-12-25T10:09:49.856Z,6.78
2022-12-25T10:13:34.965Z,6.83
2022-12-25T10:17:30.915Z,6.86
2022-12-25T10:20:59.228Z,6.89
2022-12-25T10:24:47.610Z,6.90
2022-12-25T10:28:18.625Z,6.97
2022-12-25T10:31:56.563Z,7.05
2022-12-25T10:35:32.504Z,7.11
2022-12-25T10:39:22.788Z,7.13
2022-12-25T10:43:23.611Z,7.17
2022-12-25T10:46:52.211Z,7.20
2022-12-25T10:50:30.141Z,7.27
2022-12-25T10:54:04.253Z,7.35
2022-12-25T10:58:01.340Z,7.38
2022-12-25T11:01:28.095Z,7.38
2022-12-25T11:05:13.328Z,7.38
2022-12-25T11:09:02.893Z,7.37
2022-12-25T11:12:43.237Z,7.41
2022-12-25T11:16:32.446Z,7.43
2022-12-25T11:20:20.794Z,7.56
2022-12-25T11:23:52.380Z,7.69
2022-12-25T11:27:46.610Z,7.73
2022-12-25T11:31:38.257Z,7.72
2022-12-25T11:35:30.342Z,7.74
2022-12-25T11:38:56.960Z,7.75
2022-12-25T11:43:26.192Z,7.73
2022-12-25T11:46:53.199Z,7.72
2022-12-25T11:50:45.426Z,7.73
2022-12-25T11:54:49.908Z,7.68
2022-12-25T11:58:45.961Z,7.68
2022-12-25T12:02:42.190Z,7.69
2022-12-25T12:06:14.480Z,7.70
2022-12-25T12:09:56.839Z,7.74
2022-12-25T12:14:12.283Z,7.91
2022-12-25T12:17:36.637Z,8.09
2022-12-25T12:21:41.170Z,8.11
2022-12-25T12:25:07.609Z,8.01
2022-12-25T12:29:06.504Z,8.05
2022-12-25T12:32:53.042Z,8.18
2022-12-25T12:36:17.207Z,8.38
2022-12-25T12:40:28.600Z,8.60
2022-12-25T12:44:16.800Z,8.83
2022-12-25T12:47:47.649Z,9.03
2022-12-25T12:51:36.544Z,9.10
2022-12-25T12:55:05.032Z,9.03
2022-12-25T12:58:48.574Z,9.06
2022-12-25T13:03:17.422Z,9.12
2022-12-25T13:06:49.270Z,9.32
2022-12-25T13:10:48.443Z,9.43
2022-12-25T13:14:23.362Z,9.53
2022-12-25T13:17:52.122Z,9.63
2022-12-25T13:21:29.210Z,9.68
2022-12-25T13:25:20.370Z,9.72
2022-12-25T13:28:47.035Z,9.74
2022-12-25T13:32:29.545Z,9.69
2022-12-25T13:36:24.280Z,9.65
2022-12-25T13:40:00.549Z,9.57
2022-12-25T13:43:50.680Z,9.48
2022-12-25T13:47:42.755Z,9.26
2022-12-25T13:51:14.772Z,9.04
2022-12-25T13:55:02.623Z,8.92
2022-12-25T13:58:49.825Z,8.75
2022-12-25T14:02:23.521Z,8.53
2022-12-25T14:06:25.975Z,8.35
2022-12-25T14:10:13.996Z,8.16
2022-12-25T14:14:05.051Z,7.95
2022-12-25T14:17:30.182Z,7.81
2022-12-25T14:21:33.064Z,7.70
2022-12-25T14:25:17.047Z,7.60
2022-12-25T14:29:16.778Z,7.46
2022-12-25T14:32:46.651Z,7.10
2022-12-25T14:36:20.336Z,6.82
2022-12-25T14:40:03.424Z,6.61
2022-12-25T14:43:56.311Z,6.41
2022-12-25T14:47:26.634Z,6.18
2022-12-25T14:51:18.583Z,5.92
2022-12-25T14:55:03.250Z,5.75
2022-12-25T14:59:15.733Z,5.59
2022-12-25T15:03:06.092Z,5.50
2022-12-25T15:06:30.298Z,5.45
2022-12-25T15:10:57.623Z,5.45
2022-12-25T15:14:18.319Z,5.37
2022-12-25T15:18:03.610Z,5.09
2022-12-25T15:21:45.814Z,4.91
2022-12-25T15:25:14.845Z,4.78
2022-12-25T15:29:08.671Z,4.58
2022-12-25T15:32:54.103Z,4.42
2022-12-25T15:36:17.905Z,4.36
2022-12-25T15:40:15.540Z,4.31
2022-12-25T15:43:58.241Z,4.25
2022-12-25T15:47:23.101Z,4.19
2022-12-25T15:51:19.742Z,4.16
2022-12-25T15:54:48.444Z,4.16
2022-12-25T15:58:22.681Z,4.17
2022-12-25T16:02:21.735Z,4.24
2022-12-25T16:06:06.944Z,4.30
2022-12-25T16:09:35.230Z,4.33
2022-12-25T16:13:10.167Z,4.34
2022-12-25T16:16:46.202Z,4.35
2022-12-25T16:20:23.474Z,4.31
2022-12-25T16:24:25.432Z,4.30
2022-12-25T16:27:50.940Z,4.28
2022-12-25T16:31:48.872Z,4.26
2022-12-25T16:35:34.053Z,4.25
2022-12-25T16:39:18.332Z,4.25
2022-12-25T16:43:01.469Z,4.26
2022-12-25T16:46:25.051Z,4.28
2022-12-25T16:50:22.859Z,4.27
2022-12-25T16:54:06.680Z,4.23
2022-12-25T16:57:34.511Z,4.19
2022-12-25T17:01:29.024Z,4.13
2022-12-25T17:05:15.359Z,4.10
2022-12-25T17:08:40.254Z,4.10
2022-12-25T17:12:16.962Z,4.12
2022-12-25T17:15:55.271Z,4.13
2022-12-25T17:19:33.143Z,4.09
2022-12-25T17:23:11.257Z,4.10
2022-12-25T17:26:47.536Z,4.06
2022-12-25T17:30:25.236Z,4.02
2022-12-25T17:34:04.362Z,3.94
2022-12-25T17:37:44.956Z,3.87
2022-12-25T17:41:20.649Z,3.83
2022-12-25T17:44:58.240Z,3.79
2022-12-25T17:48:40.484Z,3.76
2022-12-25T17:52:15.254Z,3.73
2022-12-25T17:56:12.177Z,3.73
2022-12-25T17:59:55.417Z,3.74
2022-12-25T18:03:41.138Z,3.78
2022-12-25T18:07:05.811Z,3.84
2022-12-25T18:10:45.421Z,3.87
2022-12-25T18:14:23.410Z,3.85
2022-12-25T18:18:16.780Z,3.84
2022-12-25T18:21:59.248Z,3.83
2022-12-25T18:25:44.939Z,3.81
2022-12-25T18:29:28.460Z,3.85
2022-12-25T18:32:51.859Z,3.89
2022-12-25T18:36:53.042Z,3.95
2022-12-25T18:40:41.746Z,3.96
2022-12-25T18:44:05.328Z,3.95
2022-12-25T18:47:45.192Z,3.91
2022-12-25T18:51:29.837Z,3.89
2022-12-25T18:55:03.745Z,3.84
2022-12-25T18:58:41.725Z,3.80
2022-12-25T19:02:17.460Z,3.75
2022-12-25T19:06:26.904Z,3.70
2022-12-25T19:10:12.079Z,3.69
2022-12-25T19:13:38.227Z,3.68
2022-12-25T19:17:15.097Z,3.66
2022-12-25T19:21:10.224Z,3.66
2022-12-25T19:24:54.113Z,3.68
2022-12-25T19:28:37.963Z,3.71
2022-12-25T19:32:21.336Z,3.74
2022-12-25T19:36:07.016Z,3.76
2022-12-25T19:39:31.510Z,3.77
2022-12-25T19:43:09.259Z,3.82
2022-12-25T19:47:06.593Z,3.87
2022-12-25T19:50:53.442Z,3.90
2022-12-25T19:54:35.545Z,3.89
2022-12-25T19:58:02.530Z,3.86
2022-12-25T20:01:58.355Z,3.82
2022-12-25T20:05:23.595Z,3.80
2022-12-25T20:09:22.539Z,3.82
2022-12-25T20:12:45.799Z,3.87
2022-12-25T20:16:44.829Z,3.90
2022-12-25T20:20:08.603Z,3.97
2022-12-25T20:23:49.851Z,4.03
2022-12-25T20:27:23.600Z,4.04
2022-12-25T20:31:08.631Z,4.03
2022-12-25T20:34:39.153Z,4.02
2022-12-25T20:38:36.464Z,4.02
2022-12-25T20:42:00.149Z,3.99
2022-12-25T20:45:41.699Z,3.98
2022-12-25T20:49:15.027Z,3.97
2022-12-25T20:52:55.333Z,3.97
2022-12-25T20:56:32.339Z,3.98
2022-12-25T21:00:08.708Z,3.99
2022-12-25T21:03:54.158Z,4.00
2022-12-25T21:07:23.724Z,4.00
2022-12-25T21:11:03.708Z,4.01
2022-12-25T21:14:40.395Z,4.03
2022-12-25T21:18:18.635Z,4.06
2022-12-25T21:21:54.798Z,4.08
2022-12-25T21:25:32.978Z,4.10
2022-12-25T21:29:32.330Z,4.11
2022-12-25T21:33:17.214Z,4.09
2022-12-25T21:36:41.736Z,4.08
2022-12-25T21:40:21.240Z,4.04
2022-12-25T21:43:56.978Z,4.01
2022-12-25T21:47:59.746Z,3.98
2022-12-25T21:51:42.429Z,3.94
2022-12-25T21:55:06.778Z,3.93
2022-12-25T21:59:05.311Z,3.94
2022-12-25T22:02:29.199Z,3.96
2022-12-25T22:09:31.747Z,6.15
2022-12-25T22:13:28.150Z,5.96
2022-12-25T22:17:13.910Z,5.58
2022-12-25T22:20:39.057Z,5.26
2022-12-25T22:24:15.642Z,5.05
2022-12-25T22:27:55.799Z,4.82
2022-12-25T22:31:32.140Z,4.66
2022-12-25T22:35:27.335Z,4.55
2022-12-25T22:38:51.768Z,4.49
2022-12-25T22:42:47.848Z,4.47
2022-12-25T22:46:12.827Z,4.46
2022-12-25T22:50:11.807Z,4.47
2022-12-25T22:53:58.757Z,4.52
2022-12-25T22:57:25.614Z,4.53
2022-12-25T23:01:22.249Z,4.48
2022-12-25T23:05:06.987Z,4.48
2022-12-25T23:08:49.703Z,4.50
2022-12-25T23:12:32.772Z,4.49
2022-12-25T23:15:59.350Z,4.44
2022-12-25T23:19:53.349Z,4.46
2022-12-25T23:23:36.906Z,4.47
2022-12-25T23:27:01.861Z,4.50
2022-12-25T23:30:38.423Z,4.44
2022-12-25T23:34:41.082Z,4.36
2022-12-25T23:38:23.591Z,4.30
2022-12-25T23:41:48.463Z,4.26
2022-12-25T23:45:45.557Z,4.27
2022-12-25T23:49:09.955Z,4.29
2022-12-25T23:52:50.649Z,4.32
2022-12-25T23:56:25.624Z,4.32
